createdAt,value
2023-02-13T00:00:02.688Z,0
2023-02-13T00:05:02.661Z,0
2023-02-13T00:10:02.676Z,0
2023-02-13T00:15:00.947Z,0.04
2023-02-13T00:20:01.026Z,0.04
2023-02-13T00:25:00.995Z,0
2023-02-13T00:30:00.964Z,0
2023-02-13T00:35:00.975Z,0
2023-02-13T00:40:01.002Z,0
2023-02-13T00:45:00.988Z,0.128
2023-02-13T00:50:01.067Z,0.151
2023-02-13T00:55:01.000Z,0.159
2023-02-13T01:00:00.995Z,0.10300000000000001
2023-02-13T01:05:01.035Z,0.042
2023-02-13T01:10:01.031Z,0
2023-02-13T01:15:00.987Z,0
2023-02-13T01:20:01.086Z,0
2023-02-13T01:25:01.041Z,0
2023-02-13T01:30:01.064Z,0
2023-02-13T01:35:00.966Z,0
2023-02-13T01:40:01.086Z,0
2023-02-13T01:45:01.024Z,0
2023-02-13T01:50:01.180Z,0
2023-02-13T01:55:01.109Z,0
2023-02-13T02:00:01.059Z,0.047
2023-02-13T02:05:01.088Z,0.067
2023-02-13T02:10:01.041Z,0.028
2023-02-13T02:15:01.058Z,0
2023-02-13T02:20:01.073Z,0.075
2023-02-13T02:25:01.064Z,0.242
2023-02-13T02:30:01.043Z,0.041
2023-02-13T02:35:01.077Z,0
2023-02-13T02:40:01.012Z,0
2023-02-13T02:45:01.115Z,0
2023-02-13T02:50:01.077Z,0
2023-02-13T02:55:01.076Z,0
2023-02-13T03:00:01.054Z,0
2023-02-13T03:05:01.113Z,0
2023-02-13T03:10:01.091Z,0
2023-02-13T03:15:01.133Z,0
2023-02-13T03:20:01.186Z,0
2023-02-13T03:25:01.100Z,0
2023-02-13T03:30:01.192Z,0
2023-02-13T03:35:01.153Z,0
2023-02-13T03:40:01.172Z,0
2023-02-13T03:45:01.154Z,0
2023-02-13T03:50:01.205Z,0.08600000000000001
2023-02-13T03:55:01.212Z,0.008
2023-02-13T04:00:01.280Z,0
2023-02-13T04:05:01.288Z,0
2023-02-13T04:10:01.248Z,0
2023-02-13T04:15:01.323Z,0.02
2023-02-13T04:20:01.369Z,0.084
2023-02-13T04:25:01.267Z,0.08600000000000001
2023-02-13T04:30:01.299Z,0.093
2023-02-13T04:35:01.289Z,0.11
2023-02-13T04:40:01.300Z,0.124
2023-02-13T04:45:01.288Z,0.14
2023-02-13T04:50:01.311Z,0.123
2023-02-13T04:55:01.373Z,0.11
2023-02-13T05:00:01.435Z,0.096
2023-02-13T05:05:01.379Z,0.092
2023-02-13T05:10:01.349Z,0.106
2023-02-13T05:15:01.343Z,0.107
2023-02-13T05:20:01.369Z,0.11
2023-02-13T05:25:01.367Z,0.026000000000000002
2023-02-13T05:30:01.404Z,0
2023-02-13T05:35:04.031Z,0
2023-02-13T05:40:01.396Z,0
2023-02-13T05:45:01.380Z,0.016
2023-02-13T05:50:01.356Z,0.068
2023-02-13T05:55:01.371Z,0.078
2023-02-13T06:00:01.421Z,0.07200000000000001
2023-02-13T06:05:01.434Z,0.146
2023-02-13T06:10:01.455Z,0.12
2023-02-13T06:15:01.399Z,0.07100000000000001
2023-02-13T06:20:01.444Z,0.106
2023-02-13T06:25:01.402Z,0.10400000000000001
2023-02-13T06:30:01.480Z,0.068
2023-02-13T06:35:02.493Z,0.037
2023-02-13T06:40:01.461Z,0.08600000000000001
2023-02-13T06:45:01.429Z,0.036000000000000004
2023-02-13T06:50:01.404Z,0
2023-02-13T06:55:01.410Z,0.09
2023-02-13T07:00:01.505Z,28.452
2023-02-13T07:05:01.585Z,33.119
2023-02-13T07:10:01.449Z,45.653
2023-02-13T07:15:01.501Z,65.052
2023-02-13T07:20:01.440Z,96.899
2023-02-13T07:25:01.488Z,132.30100000000002
2023-02-13T07:30:01.545Z,171.943
2023-02-13T07:35:02.606Z,448.319
2023-02-13T07:40:01.504Z,794.356
2023-02-13T07:45:01.523Z,1063.278
2023-02-13T07:50:01.445Z,1346.3410000000001
2023-02-13T07:55:01.472Z,1610.323
2023-02-13T08:00:01.520Z,1871.018
2023-02-13T08:05:01.526Z,2078.715
2023-02-13T08:10:01.472Z,2246.313
2023-02-13T08:15:01.465Z,2429.7780000000002
2023-02-13T08:20:01.484Z,2632.121
2023-02-13T08:25:01.499Z,2794.629
2023-02-13T08:30:01.484Z,2982.736
2023-02-13T08:35:01.471Z,3150.107
2023-02-13T08:40:01.535Z,3322.7380000000003
2023-02-13T08:45:01.561Z,3509.6730000000002
2023-02-13T08:50:01.557Z,3691.808
2023-02-13T08:55:01.609Z,3855.512
2023-02-13T09:00:01.644Z,4015.152
2023-02-13T09:05:01.567Z,4157.7880000000005
2023-02-13T09:10:01.539Z,4273.343
2023-02-13T09:15:01.529Z,4409.211
2023-02-13T09:20:01.595Z,4573.595
2023-02-13T09:25:01.547Z,4726.337
2023-02-13T09:30:01.675Z,4874.153
2023-02-13T09:35:01.594Z,4973.582
2023-02-13T09:40:01.588Z,5070.069
2023-02-13T09:45:01.609Z,5196.205
2023-02-13T09:50:01.583Z,5273.938
2023-02-13T09:55:01.596Z,5390.572
2023-02-13T10:00:01.640Z,5490.43
2023-02-13T10:05:01.630Z,5583.418
2023-02-13T10:10:01.644Z,5645.022
2023-02-13T10:15:01.689Z,5723.31
2023-02-13T10:20:01.689Z,5799.648
2023-02-13T10:25:01.669Z,5860.792
2023-02-13T10:30:01.707Z,5994.392
2023-02-13T10:35:01.629Z,6045.781
2023-02-13T10:40:01.617Z,6085.11
2023-02-13T10:45:01.623Z,6162.292
2023-02-13T10:50:01.623Z,6188.05
2023-02-13T10:55:02.904Z,6236.487
2023-02-13T11:00:01.752Z,6275.469
2023-02-13T11:05:01.699Z,6331.477
2023-02-13T11:10:01.626Z,6369.467000000001
2023-02-13T11:15:01.680Z,6399.326
2023-02-13T11:20:01.497Z,6437.113
2023-02-13T11:25:01.512Z,6468.628
2023-02-13T11:30:01.790Z,6462.956
2023-02-13T11:35:01.696Z,6464.914
2023-02-13T11:40:01.504Z,6466.705
2023-02-13T11:45:01.554Z,6491.689
2023-02-13T11:50:01.579Z,6472.725
2023-02-13T11:55:03.395Z,6444.043000000001
2023-02-13T12:00:01.611Z,6437.087
2023-02-13T12:05:01.603Z,6455.5830000000005
2023-02-13T12:10:01.516Z,6428.8240000000005
2023-02-13T12:15:01.582Z,6403.900000000001
2023-02-13T12:20:01.556Z,6358.316
2023-02-13T12:25:01.580Z,6356.4710000000005
2023-02-13T12:30:01.606Z,6345.135
2023-02-13T12:35:01.582Z,6283.0160000000005
2023-02-13T12:40:01.555Z,6232.781
2023-02-13T12:45:01.618Z,6211.57
2023-02-13T12:50:01.603Z,6170.411
2023-02-13T12:55:01.684Z,6119.468
2023-02-13T13:00:01.721Z,6050.938
2023-02-13T13:05:01.760Z,5941.936
2023-02-13T13:15:01.789Z,5733.581
2023-02-13T13:20:01.693Z,5538.368
2023-02-13T13:25:01.699Z,5339.81
2023-02-13T13:30:01.684Z,5122.0070000000005
2023-02-13T13:35:01.673Z,4870.868
2023-02-13T13:40:01.671Z,4651.666
2023-02-13T13:45:01.717Z,4411.193
2023-02-13T13:50:01.691Z,4101.655
2023-02-13T13:55:01.662Z,3753.038
2023-02-13T14:00:01.749Z,3601.8340000000003
2023-02-13T14:05:01.828Z,3446.322
2023-02-13T14:10:01.748Z,3115.937
2023-02-13T14:15:01.773Z,2901.598
2023-02-13T14:20:01.782Z,2640.291
2023-02-13T14:25:01.823Z,2408.81
2023-02-13T14:30:01.901Z,2164.1240000000003
2023-02-13T14:35:01.867Z,2040.374
2023-02-13T14:40:01.815Z,1744.809
2023-02-13T14:45:01.858Z,1560.029
2023-02-13T14:50:01.852Z,1340.142
2023-02-13T14:55:01.880Z,1138.996
2023-02-13T15:00:01.703Z,824.787
2023-02-13T15:05:01.758Z,577.181
2023-02-13T15:10:01.699Z,439.813
2023-02-13T15:15:01.700Z,351.41700000000003
2023-02-13T15:20:01.743Z,304.322
2023-02-13T15:25:01.696Z,277.449
2023-02-13T15:30:02.149Z,245.708
2023-02-13T15:35:01.746Z,214.687
2023-02-13T15:40:01.670Z,185.189
2023-02-13T15:45:01.965Z,151.827
2023-02-13T15:50:01.790Z,103.84
2023-02-13T15:55:01.957Z,70.324
2023-02-13T16:00:01.787Z,41.415
2023-02-13T16:05:01.757Z,28.637
2023-02-13T16:10:01.751Z,32.660000000000004
2023-02-13T16:15:01.748Z,10.953
2023-02-13T16:20:01.789Z,0.059000000000000004
2023-02-13T16:25:03.983Z,0.067
2023-02-13T16:30:01.795Z,0.098
2023-02-13T16:35:01.988Z,0.117
2023-02-13T16:40:01.820Z,0.011
2023-02-13T16:45:01.724Z,0.022
2023-02-13T16:50:01.935Z,0.354
2023-02-13T16:55:02.002Z,0.37
2023-02-13T17:00:01.833Z,0.295
2023-02-13T17:05:02.090Z,0.116
2023-02-13T17:10:02.165Z,0.273
2023-02-13T17:15:01.957Z,0.099
2023-02-13T17:20:02.135Z,0.436
2023-02-13T17:25:01.945Z,0.195
2023-02-13T17:30:02.124Z,0.08
2023-02-13T17:35:01.954Z,0.033
2023-02-13T17:40:01.988Z,0.047
2023-02-13T17:45:02.041Z,0.045
2023-02-13T17:50:09.559Z,0.021
2023-02-13T17:55:01.986Z,0.016
2023-02-13T18:00:02.076Z,0.033
2023-02-13T18:05:01.986Z,0.08600000000000001
2023-02-13T18:10:02.020Z,0.153
2023-02-13T18:15:02.005Z,0.114
2023-02-13T18:20:02.056Z,0
2023-02-13T18:25:02.060Z,0
2023-02-13T18:30:02.443Z,0.003
2023-02-13T18:35:02.049Z,0.794
2023-02-13T18:40:02.100Z,2.208
2023-02-13T18:45:02.083Z,1.512
2023-02-13T18:50:02.008Z,1.17
2023-02-13T18:55:02.188Z,1.516
2023-02-13T19:00:02.089Z,1.363
2023-02-13T19:05:02.361Z,1.2670000000000001
2023-02-13T19:10:02.024Z,0.019
2023-02-13T19:15:02.063Z,0.021
2023-02-13T19:20:02.472Z,0.024
2023-02-13T19:25:02.065Z,0.093
2023-02-13T19:30:02.098Z,0.277
2023-02-13T19:35:02.143Z,0.41100000000000003
2023-02-13T19:40:02.136Z,0.058
2023-02-13T19:45:02.096Z,0.453
2023-02-13T19:50:02.430Z,0.379
2023-02-13T19:55:02.104Z,0.006
2023-02-13T20:00:02.142Z,0.029
2023-02-13T20:05:02.142Z,0.628
2023-02-13T20:10:02.121Z,2.315
2023-02-13T20:15:02.109Z,0.34900000000000003
2023-02-13T20:20:02.141Z,0.263
2023-02-13T20:25:02.131Z,0.052000000000000005
2023-02-13T20:30:07.131Z,0.089
2023-02-13T20:35:02.149Z,0.485
2023-02-13T20:40:02.080Z,1.2790000000000001
2023-02-13T20:45:02.109Z,1.34
2023-02-13T20:50:02.141Z,0.925
2023-02-13T20:55:02.119Z,1.42
2023-02-13T21:00:02.185Z,1.951
2023-02-13T21:05:02.108Z,1.833
2023-02-13T21:10:02.220Z,1.826
2023-02-13T21:15:02.116Z,1.871
2023-02-13T21:20:02.152Z,1.445
2023-02-13T21:25:02.219Z,1.072
2023-02-13T21:30:02.368Z,1.1400000000000001
2023-02-13T21:35:02.198Z,1.133
2023-02-13T21:40:02.210Z,1.192
2023-02-13T21:45:02.212Z,1.2
2023-02-13T21:50:02.025Z,1.186
2023-02-13T21:55:02.078Z,1.228
2023-02-13T22:00:02.235Z,1.224
2023-02-13T22:05:02.055Z,1.072
2023-02-13T22:10:02.088Z,1.006
2023-02-13T22:15:02.095Z,1.425
2023-02-13T22:20:02.066Z,1.205
2023-02-13T22:25:02.107Z,1.434
2023-02-13T22:30:02.190Z,1.901
2023-02-13T22:35:02.062Z,1.813
2023-02-13T22:40:02.089Z,1.9180000000000001
2023-02-13T22:45:02.094Z,1.927
2023-02-13T22:50:02.121Z,1.971
2023-02-13T22:55:02.097Z,1.1260000000000001
2023-02-13T23:00:02.138Z,1.125
2023-02-13T23:05:02.181Z,1.176
2023-02-13T23:10:02.107Z,1.184
2023-02-13T23:15:02.185Z,1.191
2023-02-13T23:20:02.140Z,1.205
2023-02-13T23:25:02.131Z,0.9430000000000001
2023-02-13T23:30:02.191Z,0.352
2023-02-13T23:35:02.091Z,0.026000000000000002
2023-02-13T23:40:02.152Z,0
2023-02-13T23:45:02.169Z,0
2023-02-13T23:50:02.228Z,0.002
2023-02-13T23:55:02.163Z,0.34
